createdAt,value
2022-08-03T00:04:33.966Z,1.13
2022-08-03T00:07:03.295Z,0.97
2022-08-03T00:14:33.351Z,1.18
2022-08-03T00:17:03.394Z,1.06
2022-08-03T00:22:03.412Z,2.08
2022-08-03T00:24:33.434Z,1.36
2022-08-03T00:27:03.478Z,1.14
2022-08-03T00:34:57.915Z,0.84
2022-08-03T00:39:33.595Z,0.9
2022-08-03T00:42:03.638Z,0.84
2022-08-03T00:44:33.637Z,0.84
2022-08-03T00:47:03.698Z,1.12
2022-08-03T00:52:09.420Z,1.04
2022-08-03T00:54:33.762Z,1.17
2022-08-03T01:04:33.827Z,1.15
2022-08-03T01:07:03.867Z,0.97
2022-08-03T01:19:33.966Z,1.1
2022-08-03T01:22:04.027Z,0.87
2022-08-03T01:27:04.046Z,0.87
2022-08-03T01:29:34.076Z,1.09
2022-08-03T01:34:34.125Z,1.32
2022-08-03T01:39:34.160Z,1.23
2022-08-03T01:42:04.202Z,1.12
2022-08-03T01:47:04.230Z,1.12
2022-08-03T01:49:34.302Z,1.3
2022-08-03T01:59:34.386Z,1.16
2022-08-03T02:02:28.515Z,0.94
2022-08-03T02:04:34.396Z,1.27
2022-08-03T02:09:34.476Z,1.71
2022-08-03T02:12:04.480Z,1.65
2022-08-03T02:19:35.857Z,1.53
2022-08-03T02:22:04.580Z,1.43
2022-08-03T02:24:34.597Z,1.28
2022-08-03T02:27:04.639Z,1.72
2022-08-03T02:29:39.213Z,1.44
2022-08-03T02:32:04.667Z,1.33
2022-08-03T02:37:04.858Z,1.97
2022-08-03T02:42:04.752Z,1.62
2022-08-03T02:44:34.789Z,1.48
2022-08-03T02:52:04.868Z,1.25
2022-08-03T02:54:34.898Z,1.18
2022-08-03T02:59:34.917Z,1.79
2022-08-03T03:07:05.007Z,1.46
2022-08-03T03:09:41.853Z,1.37
2022-08-03T03:12:05.054Z,1.29
2022-08-03T03:14:35.065Z,1.79
2022-08-03T03:17:05.128Z,1.49
2022-08-03T03:22:05.182Z,1.24
2022-08-03T03:27:05.184Z,1.36
2022-08-03T03:29:39.243Z,1.51
2022-08-03T03:32:05.249Z,1.49
2022-08-03T03:34:35.262Z,1.8
2022-08-03T03:39:35.317Z,1.51
2022-08-03T03:42:05.326Z,1.53
2022-08-03T03:49:35.456Z,2.03
2022-08-03T03:52:05.441Z,1.77
2022-08-03T03:57:05.474Z,1.88
2022-08-03T03:59:36.052Z,1.74
2022-08-03T04:02:05.550Z,1.7
2022-08-03T04:07:05.584Z,1.69
2022-08-03T04:09:35.602Z,1.69
2022-08-03T04:12:05.646Z,1.57
2022-08-03T04:19:35.702Z,1.66
2022-08-03T04:22:05.728Z,1.47
2022-08-03T04:24:35.729Z,1.35
2022-08-03T04:27:05.774Z,1.78
2022-08-03T04:29:35.782Z,2.21
2022-08-03T04:32:05.813Z,2.11
2022-08-03T04:34:35.868Z,1.67
2022-08-03T04:42:07.999Z,2.31
2022-08-03T04:49:36.060Z,1.62
2022-08-03T04:52:06.013Z,1.47
2022-08-03T04:54:36.022Z,1.54
2022-08-03T04:57:06.034Z,1.69
2022-08-03T04:59:36.066Z,2.18
2022-08-03T05:02:06.164Z,2.29
2022-08-03T05:09:50.838Z,2.31
2022-08-03T05:12:06.195Z,2.12
2022-08-03T05:14:36.213Z,2.34
2022-08-03T05:19:36.253Z,2.39
2022-08-03T05:22:06.308Z,2.61
2022-08-03T05:24:36.320Z,2.36
2022-08-03T05:27:06.342Z,2.53
2022-08-03T05:29:36.358Z,2.39
2022-08-03T05:32:08.429Z,2.71
2022-08-03T05:34:36.411Z,2.36
2022-08-03T05:37:06.425Z,2.28
2022-08-03T05:39:36.437Z,1.91
2022-08-03T05:42:06.483Z,1.98
2022-08-03T05:44:36.485Z,1.97
2022-08-03T05:47:06.520Z,2.16
2022-08-03T05:49:36.613Z,2.3
2022-08-03T05:52:15.872Z,2.4
2022-08-03T05:59:38.521Z,2.12
2022-08-03T06:07:06.711Z,2.04
2022-08-03T06:10:36.190Z,2.23
2022-08-03T06:12:09.114Z,2.21
2022-08-03T06:14:36.793Z,2.11
2022-08-03T06:17:06.818Z,1.93
2022-08-03T06:19:36.822Z,2.04
2022-08-03T06:22:06.860Z,1.98
2022-08-03T06:24:36.863Z,2
2022-08-03T06:27:06.891Z,2
2022-08-03T06:32:06.939Z,1.75
2022-08-03T06:34:36.964Z,2.37
2022-08-03T06:37:07.001Z,2.08
2022-08-03T06:39:37.028Z,2.03
2022-08-03T06:44:37.081Z,1.53
2022-08-03T06:49:37.255Z,1.55
2022-08-03T06:52:07.184Z,1.69
2022-08-03T06:54:37.161Z,1.95
2022-08-03T06:57:07.187Z,1.94
2022-08-03T07:00:08.292Z,1.82
2022-08-03T07:02:07.237Z,1.83
2022-08-03T07:07:07.324Z,1.94
2022-08-03T07:09:37.294Z,1.85
2022-08-03T07:12:07.358Z,1.92
2022-08-03T07:14:37.347Z,1.8
2022-08-03T07:17:12.000Z,1.68
2022-08-03T07:24:37.453Z,1.66
2022-08-03T07:27:07.477Z,1.51
2022-08-03T07:29:37.486Z,2.22
2022-08-03T07:32:07.526Z,2.13
2022-08-03T07:37:07.573Z,1.75
2022-08-03T07:39:37.597Z,1.63
2022-08-03T07:42:07.624Z,1.55
2022-08-03T07:44:37.626Z,2.18
2022-08-03T07:49:37.737Z,1.79
2022-08-03T07:54:37.741Z,1.78
2022-08-03T07:57:07.758Z,1.47
2022-08-03T07:59:56.628Z,1.58
2022-08-03T08:04:37.846Z,1.56
2022-08-03T08:07:07.864Z,1.53
2022-08-03T08:09:37.990Z,3
2022-08-03T08:12:15.215Z,2.13
2022-08-03T08:14:37.920Z,2.11
2022-08-03T08:17:07.960Z,1.62
2022-08-03T08:19:38.333Z,1.38
2022-08-03T08:24:38.020Z,1.42
2022-08-03T08:27:08.059Z,1.52
2022-08-03T08:29:38.083Z,1.35
2022-08-03T08:32:08.080Z,1.66
2022-08-03T08:34:38.115Z,1.55
2022-08-03T08:37:08.134Z,1.68
2022-08-03T08:42:08.190Z,1.62
2022-08-03T08:44:38.218Z,1.78
2022-08-03T08:47:08.241Z,2.02
2022-08-03T08:49:38.307Z,1.77
2022-08-03T08:52:25.489Z,1.59
2022-08-03T08:57:21.329Z,1.41
2022-08-03T08:59:49.009Z,1.56
2022-08-03T09:02:08.362Z,1.76
2022-08-03T09:07:20.112Z,1.67
2022-08-03T09:10:10.560Z,1.52
2022-08-03T09:12:35.427Z,1.69
2022-08-03T09:14:49.752Z,1.72
2022-08-03T09:17:08.519Z,1.75
2022-08-03T09:19:38.547Z,1.65
2022-08-03T09:22:08.702Z,1.74
2022-08-03T09:29:38.641Z,1.91
2022-08-03T09:34:38.694Z,1.98
2022-08-03T09:37:08.879Z,2.01
2022-08-03T09:39:42.022Z,2.02
2022-08-03T09:42:08.770Z,2.7
2022-08-03T09:44:38.786Z,2.09
2022-08-03T09:47:08.806Z,1.68
2022-08-03T09:49:38.892Z,1.81
2022-08-03T09:54:38.967Z,2.21
2022-08-03T09:57:08.894Z,2.04
2022-08-03T09:59:41.242Z,1.57
2022-08-03T10:04:38.969Z,2.11
2022-08-03T10:09:39.009Z,2.42
2022-08-03T10:12:09.032Z,2.18
2022-08-03T10:14:39.076Z,2.2
2022-08-03T10:17:09.077Z,1.79
2022-08-03T10:22:09.128Z,2.76
2022-08-03T10:24:39.162Z,2.26
2022-08-03T10:27:09.171Z,2.75
2022-08-03T10:29:39.222Z,2.1
2022-08-03T10:34:42.596Z,1.73
2022-08-03T10:42:14.736Z,1.66
2022-08-03T10:47:09.367Z,2.67
2022-08-03T10:54:39.450Z,1.9
2022-08-03T10:57:14.176Z,1.63
2022-08-03T10:59:39.490Z,1.79
2022-08-03T11:02:09.533Z,2.56
2022-08-03T11:04:39.572Z,2.2
2022-08-03T11:07:09.548Z,1.9
2022-08-03T11:14:39.669Z,1.84
2022-08-03T11:17:14.392Z,1.88
2022-08-03T11:22:09.696Z,1.83
2022-08-03T11:29:39.790Z,1.94
2022-08-03T11:34:39.837Z,1.64
2022-08-03T11:39:40.050Z,2.06
2022-08-03T11:42:09.902Z,2.11
2022-08-03T11:47:09.950Z,1.46
2022-08-03T11:49:40.002Z,1.37
2022-08-03T11:52:10.002Z,1.89
2022-08-03T11:54:40.054Z,1.45
2022-08-03T11:57:10.551Z,1.26
2022-08-03T11:59:40.065Z,1.74
2022-08-03T12:02:10.096Z,2.46
2022-08-03T12:04:40.113Z,2.01
2022-08-03T12:07:10.162Z,1.81
2022-08-03T12:12:10.184Z,1.48
2022-08-03T12:14:50.243Z,1.55
2022-08-03T12:17:10.238Z,1.62
2022-08-03T12:24:40.311Z,1.51
2022-08-03T12:29:40.365Z,1.7
2022-08-03T12:32:17.477Z,1.6
2022-08-03T12:37:22.518Z,1.41
2022-08-03T12:44:40.506Z,1.59
2022-08-03T12:47:10.545Z,1.58
2022-08-03T12:49:40.629Z,1.96
2022-08-03T12:52:10.562Z,1.68
2022-08-03T12:57:10.630Z,1.77
2022-08-03T12:59:41.419Z,1.94
2022-08-03T13:02:10.745Z,1.69
2022-08-03T13:07:12.624Z,2.09
2022-08-03T13:09:40.735Z,1.6
2022-08-03T13:12:10.937Z,1.95
2022-08-03T13:14:40.816Z,1.57
2022-08-03T13:17:10.832Z,1.97
2022-08-03T13:19:40.839Z,1.77
2022-08-03T13:22:10.861Z,1.58
2022-08-03T13:24:40.877Z,1.48
2022-08-03T13:28:01.464Z,1.39
2022-08-03T13:29:40.926Z,1.46
2022-08-03T13:32:10.973Z,1.48
2022-08-03T13:34:40.979Z,1.15
2022-08-03T13:37:11.028Z,1.12
2022-08-03T13:39:57.598Z,1.46
2022-08-03T13:42:11.064Z,1.24
2022-08-03T13:44:41.209Z,1.4
2022-08-03T13:49:41.537Z,1.44
2022-08-03T13:52:11.147Z,1.18
2022-08-03T13:54:41.202Z,1.39
2022-08-03T13:59:41.236Z,1.54
2022-08-03T14:02:11.304Z,1.57
2022-08-03T14:04:41.286Z,1.34
2022-08-03T14:07:11.289Z,1.31
2022-08-03T14:12:11.356Z,1.39
2022-08-03T14:14:41.357Z,1.16
2022-08-03T14:19:53.324Z,1.62
2022-08-03T14:22:11.573Z,1.57
2022-08-03T14:24:41.476Z,1.65
2022-08-03T14:29:41.518Z,1.38
2022-08-03T14:32:13.108Z,1.53
2022-08-03T14:34:41.564Z,1.43
2022-08-03T14:37:11.594Z,1.45
2022-08-03T14:40:01.143Z,1.33
2022-08-03T14:42:11.643Z,1.68
2022-08-03T14:44:41.678Z,1.59
2022-08-03T14:47:11.744Z,1.62
2022-08-03T14:52:11.759Z,1.26
2022-08-03T14:54:41.772Z,1.24
2022-08-03T14:57:11.879Z,1.17
2022-08-03T14:59:56.898Z,1.14
2022-08-03T15:02:21.226Z,1.27
2022-08-03T15:04:41.865Z,1.61
2022-08-03T15:07:11.955Z,1.67
2022-08-03T15:09:41.929Z,1.36
2022-08-03T15:12:11.954Z,1.76
2022-08-03T15:14:41.983Z,1.51
2022-08-03T15:17:12.010Z,1.63
2022-08-03T15:22:12.072Z,1.6
2022-08-03T15:24:42.122Z,1.51
2022-08-03T15:27:12.179Z,1.6
2022-08-03T15:30:07.560Z,1.44
2022-08-03T15:32:12.164Z,1.38
2022-08-03T15:34:42.187Z,1.42
2022-08-03T15:37:23.193Z,1.4
2022-08-03T15:39:59.967Z,1.34
2022-08-03T15:42:12.264Z,1.81
2022-08-03T15:44:42.305Z,2.69
2022-08-03T15:47:12.364Z,2.08
2022-08-03T15:49:42.351Z,1.81
2022-08-03T15:52:12.362Z,1.67
2022-08-03T15:54:42.394Z,1.58
2022-08-03T15:57:12.474Z,1.34
2022-08-03T15:59:42.428Z,1.46
2022-08-03T16:02:12.493Z,1.38
2022-08-03T16:04:42.500Z,1.69
2022-08-03T16:07:12.797Z,1.71
2022-08-03T16:09:43.890Z,1.56
2022-08-03T16:12:16.295Z,1.35
2022-08-03T16:14:51.831Z,1.32
2022-08-03T16:22:12.686Z,1.41
2022-08-03T16:24:42.703Z,1.56
2022-08-03T16:27:36.833Z,1.45
2022-08-03T16:29:42.758Z,1.49
2022-08-03T16:32:12.787Z,1.35
2022-08-03T16:34:42.810Z,1.51
2022-08-03T16:39:42.879Z,1.75
2022-08-03T16:44:42.915Z,1.68
2022-08-03T16:47:22.074Z,1.46
2022-08-03T16:49:53.957Z,1.82
2022-08-03T16:52:13.312Z,1.53
2022-08-03T16:54:43.005Z,1.46
2022-08-03T16:57:13.052Z,1.56
2022-08-03T16:59:43.059Z,1.39
2022-08-03T17:02:13.186Z,1.59
2022-08-03T17:04:43.110Z,1.64
2022-08-03T17:07:13.145Z,1.52
2022-08-03T17:09:43.192Z,1.61
2022-08-03T17:12:13.218Z,1.82
2022-08-03T17:14:43.227Z,1.67
2022-08-03T17:17:16.305Z,1.67
2022-08-03T17:22:13.474Z,1.57
2022-08-03T17:24:43.332Z,1.62
2022-08-03T17:27:18.493Z,1.46
2022-08-03T17:29:45.074Z,1.81
2022-08-03T17:32:17.874Z,1.55
2022-08-03T17:34:43.434Z,1.58
2022-08-03T17:37:27.403Z,1.54
2022-08-03T17:39:58.278Z,1.56
2022-08-03T17:42:31.368Z,1.46
2022-08-03T17:44:47.200Z,1.34
2022-08-03T17:47:13.583Z,1.69
2022-08-03T17:49:43.604Z,1.4
2022-08-03T17:52:17.570Z,1.44
2022-08-03T17:55:56.536Z,1.71
2022-08-03T17:57:22.411Z,1.67
2022-08-03T18:02:23.791Z,1.43
2022-08-03T18:04:43.761Z,1.27
2022-08-03T18:07:13.775Z,1.3
2022-08-03T18:10:04.422Z,1.27
2022-08-03T18:12:13.956Z,1.57
2022-08-03T18:14:46.370Z,1.44
2022-08-03T18:17:13.906Z,1.32
2022-08-03T18:20:01.391Z,2.1
2022-08-03T18:24:44.517Z,1.65
2022-08-03T18:27:14.220Z,1.57
2022-08-03T18:29:44.026Z,1.18
2022-08-03T18:32:16.874Z,1.52
2022-08-03T18:34:53.176Z,1.64
2022-08-03T18:37:14.098Z,1.59
2022-08-03T18:39:50.244Z,1.34
2022-08-03T18:42:19.699Z,1.63
2022-08-03T18:44:54.268Z,1.69
2022-08-03T18:47:15.981Z,1.46
2022-08-03T18:49:44.324Z,1.62
2022-08-03T18:52:14.296Z,1.92
2022-08-03T18:54:51.756Z,1.61
2022-08-03T18:57:14.297Z,1.41
2022-08-03T18:59:44.329Z,1.48
2022-08-03T19:04:44.379Z,1.39
2022-08-03T19:07:14.465Z,1.42
2022-08-03T19:09:44.401Z,1.65
2022-08-03T19:14:44.469Z,1.5
2022-08-03T19:17:14.513Z,1.5
2022-08-03T19:24:44.616Z,1.45
2022-08-03T19:27:16.059Z,1.42
2022-08-03T19:32:14.639Z,2
2022-08-03T19:34:45.992Z,2.01
2022-08-03T19:37:14.741Z,3.13
2022-08-03T19:39:44.808Z,2.47
2022-08-03T19:42:22.969Z,2.4
2022-08-03T19:44:44.874Z,2.18
2022-08-03T19:47:16.846Z,2.26
2022-08-03T19:49:56.982Z,1.92
2022-08-03T19:52:14.850Z,1.73
2022-08-03T19:57:15.995Z,1.49
2022-08-03T19:59:49.997Z,1.84
2022-08-03T20:02:17.535Z,1.73
2022-08-03T20:04:44.964Z,1.77
2022-08-03T20:07:18.063Z,2.54
2022-08-03T20:09:45.022Z,2.42
2022-08-03T20:12:15.034Z,2.34
2022-08-03T20:14:45.063Z,2.16
2022-08-03T20:17:15.106Z,2.23
2022-08-03T20:19:45.183Z,2.25
2022-08-03T20:22:15.135Z,2.25
2022-08-03T20:24:49.363Z,2.27
2022-08-03T20:30:06.401Z,2.02
2022-08-03T20:32:15.242Z,1.91
2022-08-03T20:34:45.262Z,1.7
2022-08-03T20:37:15.283Z,1.81
2022-08-03T20:42:15.334Z,1.8
2022-08-03T20:47:23.724Z,1.89
2022-08-03T20:49:46.061Z,1.69
2022-08-03T20:52:18.424Z,1.93
2022-08-03T20:54:45.440Z,2.01
2022-08-03T20:59:50.860Z,1.87
2022-08-03T21:02:19.906Z,1.98
2022-08-03T21:04:47.331Z,1.71
2022-08-03T21:07:16.823Z,1.72
2022-08-03T21:09:49.417Z,1.93
2022-08-03T21:12:18.908Z,1.79
2022-08-03T21:14:46.938Z,2.17
2022-08-03T21:19:51.979Z,1.92
2022-08-03T21:22:15.731Z,1.49
2022-08-03T21:24:45.764Z,1.68
2022-08-03T21:29:53.065Z,1.83
2022-08-03T21:32:16.782Z,1.48
2022-08-03T21:34:45.837Z,1.7
2022-08-03T21:37:15.876Z,1.73
2022-08-03T21:39:51.120Z,1.74
2022-08-03T21:42:15.953Z,1.66
2022-08-03T21:47:16.064Z,2.02
2022-08-03T21:50:06.135Z,1.78
2022-08-03T21:52:16.010Z,1.98
2022-08-03T21:54:46.049Z,1.69
2022-08-03T21:57:16.052Z,1.72
2022-08-03T21:59:46.081Z,2.29
2022-08-03T22:02:22.591Z,2.03
2022-08-03T22:04:55.789Z,1.88
2022-08-03T22:07:16.189Z,2.08
2022-08-03T22:12:16.190Z,1.8
2022-08-03T22:14:46.203Z,1.78
2022-08-03T22:19:46.251Z,1.66
2022-08-03T22:24:46.319Z,1.84
2022-08-03T22:27:16.332Z,1.73
2022-08-03T22:29:46.368Z,2.1
2022-08-03T22:32:16.406Z,2.19
2022-08-03T22:34:46.404Z,1.79
2022-08-03T22:39:46.477Z,1.46
2022-08-03T22:42:16.487Z,1.47
2022-08-03T22:47:16.544Z,1.54
2022-08-03T22:49:46.557Z,1.59
2022-08-03T22:52:16.593Z,1.5
2022-08-03T22:54:46.607Z,1.55
2022-08-03T22:57:16.651Z,1.39
2022-08-03T22:59:46.669Z,1.36
2022-08-03T23:02:20.127Z,1.61
2022-08-03T23:04:46.715Z,2.14
2022-08-03T23:07:16.728Z,2.17
2022-08-03T23:09:46.754Z,2.7
2022-08-03T23:12:16.796Z,2.45
2022-08-03T23:14:46.827Z,2.58
2022-08-03T23:24:46.900Z,1.96
2022-08-03T23:27:16.937Z,1.79
2022-08-03T23:32:16.981Z,1.53
2022-08-03T23:37:17.024Z,1.8
2022-08-03T23:42:24.387Z,1.36
2022-08-03T23:47:24.649Z,1.47
2022-08-03T23:52:25.334Z,1.49
2022-08-03T23:54:54.499Z,2.06
2022-08-03T23:57:24.697Z,2.27
